sensor_id;sensor_type;location;lat;lon;timestamp;temperature;humidity
728;DHT22;347;48.780;9.158;2023-04-25T00:00:11;10.80;28.60
728;DHT22;347;48.780;9.158;2023-04-25T00:02:37;10.90;28.70
728;DHT22;347;48.780;9.158;2023-04-25T00:05:03;10.80;28.40
728;DHT22;347;48.780;9.158;2023-04-25T00:07:28;10.80;28.40
728;DHT22;347;48.780;9.158;2023-04-25T00:09:54;10.90;28.20
728;DHT22;347;48.780;9.158;2023-04-25T00:12:20;10.90;28.00
728;DHT22;347;48.780;9.158;2023-04-25T00:14:47;10.90;28.30
728;DHT22;347;48.780;9.158;2023-04-25T00:17:15;11.00;28.20
728;DHT22;347;48.780;9.158;2023-04-25T00:19:42;11.10;27.70
728;DHT22;347;48.780;9.158;2023-04-25T00:22:08;11.10;28.10
728;DHT22;347;48.780;9.158;2023-04-25T00:24:33;11.20;27.90
728;DHT22;347;48.780;9.158;2023-04-25T00:26:59;11.20;27.80
728;DHT22;347;48.780;9.158;2023-04-25T00:29:24;11.20;27.70
728;DHT22;347;48.780;9.158;2023-04-25T00:31:50;11.20;28.00
728;DHT22;347;48.780;9.158;2023-04-25T00:34:16;11.40;28.10
728;DHT22;347;48.780;9.158;2023-04-25T00:36:41;11.30;27.70
728;DHT22;347;48.780;9.158;2023-04-25T00:39:07;11.40;27.40
728;DHT22;347;48.780;9.158;2023-04-25T00:41:33;11.40;27.30
728;DHT22;347;48.780;9.158;2023-04-25T00:43:59;11.30;27.70
728;DHT22;347;48.780;9.158;2023-04-25T00:46:26;11.20;27.70
728;DHT22;347;48.780;9.158;2023-04-25T00:48:51;11.10;27.80
728;DHT22;347;48.780;9.158;2023-04-25T00:51:20;11.10;28.10
728;DHT22;347;48.780;9.158;2023-04-25T00:53:47;11.30;27.80
728;DHT22;347;48.780;9.158;2023-04-25T00:56:14;11.30;27.30
728;DHT22;347;48.780;9.158;2023-04-25T00:58:41;11.30;27.50
728;DHT22;347;48.780;9.158;2023-04-25T01:01:09;11.30;27.30
728;DHT22;347;48.780;9.158;2023-04-25T01:03:37;11.10;27.80
728;DHT22;347;48.780;9.158;2023-04-25T01:06:07;11.20;27.50
728;DHT22;347;48.780;9.158;2023-04-25T01:08:34;11.20;27.90
728;DHT22;347;48.780;9.158;2023-04-25T01:10:59;11.20;28.40
728;DHT22;347;48.780;9.158;2023-04-25T01:13:25;11.30;28.30
728;DHT22;347;48.780;9.158;2023-04-25T01:15:50;11.50;28.20
728;DHT22;347;48.780;9.158;2023-04-25T01:18:16;11.60;27.50
728;DHT22;347;48.780;9.158;2023-04-25T01:20:42;11.80;27.00
728;DHT22;347;48.780;9.158;2023-04-25T01:23:09;12.00;27.10
728;DHT22;347;48.780;9.158;2023-04-25T01:25:35;12.00;26.80
728;DHT22;347;48.780;9.158;2023-04-25T01:28:01;12.10;26.50
728;DHT22;347;48.780;9.158;2023-04-25T01:30:27;12.20;26.50
728;DHT22;347;48.780;9.158;2023-04-25T01:32:55;12.30;26.20
728;DHT22;347;48.780;9.158;2023-04-25T01:35:22;12.30;26.20
728;DHT22;347;48.780;9.158;2023-04-25T01:37:50;12.10;26.40
728;DHT22;347;48.780;9.158;2023-04-25T01:40:16;11.70;27.40
728;DHT22;347;48.780;9.158;2023-04-25T01:42:44;11.40;27.90
728;DHT22;347;48.780;9.158;2023-04-25T01:45:11;11.30;28.80
728;DHT22;347;48.780;9.158;2023-04-25T01:47:38;11.30;28.50
728;DHT22;347;48.780;9.158;2023-04-25T01:50:06;11.30;28.40
728;DHT22;347;48.780;9.158;2023-04-25T01:52:32;11.30;28.20
728;DHT22;347;48.780;9.158;2023-04-25T01:54:59;11.30;28.90
728;DHT22;347;48.780;9.158;2023-04-25T01:57:25;11.30;28.70
728;DHT22;347;48.780;9.158;2023-04-25T01:59:50;11.30;28.70
728;DHT22;347;48.780;9.158;2023-04-25T02:02:16;11.30;28.90
728;DHT22;347;48.780;9.158;2023-04-25T02:04:42;11.20;28.80
728;DHT22;347;48.780;9.158;2023-04-25T02:07:08;11.00;29.50
728;DHT22;347;48.780;9.158;2023-04-25T02:09:33;10.90;29.70
728;DHT22;347;48.780;9.158;2023-04-25T02:11:59;10.80;29.90
728;DHT22;347;48.780;9.158;2023-04-25T02:14:25;10.60;30.40
728;DHT22;347;48.780;9.158;2023-04-25T02:16:52;10.70;30.60
728;DHT22;347;48.780;9.158;2023-04-25T02:19:18;10.60;30.70
728;DHT22;347;48.780;9.158;2023-04-25T02:21:43;10.60;31.20
728;DHT22;347;48.780;9.158;2023-04-25T02:24:09;10.60;31.60
728;DHT22;347;48.780;9.158;2023-04-25T02:26:34;10.60;31.20
728;DHT22;347;48.780;9.158;2023-04-25T02:29:00;10.70;31.10
728;DHT22;347;48.780;9.158;2023-04-25T02:31:26;10.70;31.10
728;DHT22;347;48.780;9.158;2023-04-25T02:33:52;10.90;31.60
728;DHT22;347;48.780;9.158;2023-04-25T02:36:17;11.10;30.50
728;DHT22;347;48.780;9.158;2023-04-25T02:38:43;11.40;29.70
728;DHT22;347;48.780;9.158;2023-04-25T02:41:09;11.60;29.10
728;DHT22;347;48.780;9.158;2023-04-25T02:43:34;11.70;28.70
728;DHT22;347;48.780;9.158;2023-04-25T02:46:00;11.70;28.20
728;DHT22;347;48.780;9.158;2023-04-25T02:48:26;11.70;28.40
728;DHT22;347;48.780;9.158;2023-04-25T02:50:51;11.50;28.70
728;DHT22;347;48.780;9.158;2023-04-25T02:53:17;11.20;29.10
728;DHT22;347;48.780;9.158;2023-04-25T02:55:43;10.90;29.60
728;DHT22;347;48.780;9.158;2023-04-25T02:58:08;10.70;30.00
728;DHT22;347;48.780;9.158;2023-04-25T03:00:34;10.60;30.10
728;DHT22;347;48.780;9.158;2023-04-25T03:02:59;10.70;30.20
728;DHT22;347;48.780;9.158;2023-04-25T03:05:25;10.60;30.00
728;DHT22;347;48.780;9.158;2023-04-25T03:07:51;10.60;30.10
728;DHT22;347;48.780;9.158;2023-04-25T03:10:16;10.60;30.00
728;DHT22;347;48.780;9.158;2023-04-25T03:12:42;10.60;30.10
728;DHT22;347;48.780;9.158;2023-04-25T03:15:08;10.50;30.00
728;DHT22;347;48.780;9.158;2023-04-25T03:17:33;10.50;30.20
728;DHT22;347;48.780;9.158;2023-04-25T03:20:00;10.40;30.20
728;DHT22;347;48.780;9.158;2023-04-25T03:22:26;10.30;30.40
728;DHT22;347;48.780;9.158;2023-04-25T03:24:51;10.40;30.40
728;DHT22;347;48.780;9.158;2023-04-25T03:27:17;10.60;29.80
728;DHT22;347;48.780;9.158;2023-04-25T03:29:43;10.40;29.80
728;DHT22;347;48.780;9.158;2023-04-25T03:32:08;10.40;29.90
728;DHT22;347;48.780;9.158;2023-04-25T03:34:34;10.20;29.70
728;DHT22;347;48.780;9.158;2023-04-25T03:37:00;10.20;30.60
728;DHT22;347;48.780;9.158;2023-04-25T03:39:26;10.30;30.50
728;DHT22;347;48.780;9.158;2023-04-25T03:41:52;10.40;30.10
728;DHT22;347;48.780;9.158;2023-04-25T03:44:17;10.60;30.50
728;DHT22;347;48.780;9.158;2023-04-25T03:46:43;10.70;29.60
728;DHT22;347;48.780;9.158;2023-04-25T03:49:09;10.70;29.70
728;DHT22;347;48.780;9.158;2023-04-25T03:51:34;10.70;29.40
728;DHT22;347;48.780;9.158;2023-04-25T03:54:00;10.70;29.50
728;DHT22;347;48.780;9.158;2023-04-25T03:56:26;10.60;29.80
728;DHT22;347;48.780;9.158;2023-04-25T03:58:52;10.40;30.50
728;DHT22;347;48.780;9.158;2023-04-25T04:01:17;10.30;30.30
728;DHT22;347;48.780;9.158;2023-04-25T04:03:43;10.40;30.20
728;DHT22;347;48.780;9.158;2023-04-25T04:06:09;10.30;30.10
728;DHT22;347;48.780;9.158;2023-04-25T04:08:34;10.20;30.70
728;DHT22;347;48.780;9.158;2023-04-25T04:11:00;10.10;31.30
728;DHT22;347;48.780;9.158;2023-04-25T04:13:27;10.10;31.60
728;DHT22;347;48.780;9.158;2023-04-25T04:15:54;10.20;31.30
728;DHT22;347;48.780;9.158;2023-04-25T04:18:21;10.30;30.70
728;DHT22;347;48.780;9.158;2023-04-25T04:20:47;10.20;31.10
728;DHT22;347;48.780;9.158;2023-04-25T04:23:12;10.20;31.70
728;DHT22;347;48.780;9.158;2023-04-25T04:25:38;10.40;31.40
728;DHT22;347;48.780;9.158;2023-04-25T04:28:05;10.60;30.30
728;DHT22;347;48.780;9.158;2023-04-25T04:30:31;10.50;30.60
728;DHT22;347;48.780;9.158;2023-04-25T04:32:58;10.40;30.80
728;DHT22;347;48.780;9.158;2023-04-25T04:35:26;10.50;30.80
728;DHT22;347;48.780;9.158;2023-04-25T04:37:52;10.40;30.50
728;DHT22;347;48.780;9.158;2023-04-25T04:40:18;10.50;30.20
728;DHT22;347;48.780;9.158;2023-04-25T04:42:44;10.70;30.00
728;DHT22;347;48.780;9.158;2023-04-25T04:45:13;10.70;30.00
728;DHT22;347;48.780;9.158;2023-04-25T04:47:39;10.60;30.20
728;DHT22;347;48.780;9.158;2023-04-25T04:50:10;10.50;30.60
728;DHT22;347;48.780;9.158;2023-04-25T04:52:36;10.60;30.60
728;DHT22;347;48.780;9.158;2023-04-25T04:55:03;10.60;30.40
728;DHT22;347;48.780;9.158;2023-04-25T04:57:29;10.50;30.50
728;DHT22;347;48.780;9.158;2023-04-25T04:59:56;10.40;31.00
728;DHT22;347;48.780;9.158;2023-04-25T05:02:22;10.30;31.70
728;DHT22;347;48.780;9.158;2023-04-25T05:04:47;10.30;31.70
728;DHT22;347;48.780;9.158;2023-04-25T05:07:13;10.20;31.70
728;DHT22;347;48.780;9.158;2023-04-25T05:09:39;10.00;32.20
728;DHT22;347;48.780;9.158;2023-04-25T05:12:05;10.00;32.70
728;DHT22;347;48.780;9.158;2023-04-25T05:14:31;9.90;33.90
728;DHT22;347;48.780;9.158;2023-04-25T05:16:56;10.00;32.80
728;DHT22;347;48.780;9.158;2023-04-25T05:19:22;10.10;32.50
728;DHT22;347;48.780;9.158;2023-04-25T05:21:49;10.30;32.20
728;DHT22;347;48.780;9.158;2023-04-25T05:24:14;10.40;31.80
728;DHT22;347;48.780;9.158;2023-04-25T05:26:40;10.40;31.90
728;DHT22;347;48.780;9.158;2023-04-25T05:29:06;10.30;31.80
728;DHT22;347;48.780;9.158;2023-04-25T05:31:32;10.30;31.80
728;DHT22;347;48.780;9.158;2023-04-25T05:33:57;10.60;31.70
728;DHT22;347;48.780;9.158;2023-04-25T05:36:23;10.60;32.70
728;DHT22;347;48.780;9.158;2023-04-25T05:38:49;10.50;30.60
728;DHT22;347;48.780;9.158;2023-04-25T05:41:15;10.50;31.30
728;DHT22;347;48.780;9.158;2023-04-25T05:43:40;10.80;30.70
728;DHT22;347;48.780;9.158;2023-04-25T05:46:11;11.00;30.00
728;DHT22;347;48.780;9.158;2023-04-25T05:48:37;11.20;28.30
728;DHT22;347;48.780;9.158;2023-04-25T05:51:03;11.40;28.00
728;DHT22;347;48.780;9.158;2023-04-25T05:53:28;11.50;27.70
728;DHT22;347;48.780;9.158;2023-04-25T05:55:54;11.20;27.90
728;DHT22;347;48.780;9.158;2023-04-25T05:58:20;11.20;28.20
728;DHT22;347;48.780;9.158;2023-04-25T06:00:45;10.90;27.90
728;DHT22;347;48.780;9.158;2023-04-25T06:03:12;10.70;28.40
728;DHT22;347;48.780;9.158;2023-04-25T06:05:41;10.60;28.40
728;DHT22;347;48.780;9.158;2023-04-25T06:08:07;10.60;28.00
728;DHT22;347;48.780;9.158;2023-04-25T06:10:33;10.60;28.10
728;DHT22;347;48.780;9.158;2023-04-25T06:12:58;10.60;28.10
728;DHT22;347;48.780;9.158;2023-04-25T06:15:24;10.50;28.70
728;DHT22;347;48.780;9.158;2023-04-25T06:17:50;10.50;28.80
728;DHT22;347;48.780;9.158;2023-04-25T06:20:16;10.50;28.90
728;DHT22;347;48.780;9.158;2023-04-25T06:22:41;10.60;28.50
728;DHT22;347;48.780;9.158;2023-04-25T06:25:07;10.70;28.40
728;DHT22;347;48.780;9.158;2023-04-25T06:27:33;10.60;28.60
728;DHT22;347;48.780;9.158;2023-04-25T06:29:59;10.60;28.50
728;DHT22;347;48.780;9.158;2023-04-25T06:32:25;10.80;28.50
728;DHT22;347;48.780;9.158;2023-04-25T06:34:53;10.70;28.20
728;DHT22;347;48.780;9.158;2023-04-25T06:37:18;10.80;28.40
728;DHT22;347;48.780;9.158;2023-04-25T06:39:44;10.90;27.90
728;DHT22;347;48.780;9.158;2023-04-25T06:42:10;10.70;28.60
728;DHT22;347;48.780;9.158;2023-04-25T06:44:36;10.60;29.20
728;DHT22;347;48.780;9.158;2023-04-25T06:47:01;10.40;30.70
728;DHT22;347;48.780;9.158;2023-04-25T06:49:27;10.40;31.80
728;DHT22;347;48.780;9.158;2023-04-25T06:51:53;10.20;32.50
728;DHT22;347;48.780;9.158;2023-04-25T06:54:19;10.10;33.00
728;DHT22;347;48.780;9.158;2023-04-25T06:56:44;10.00;33.50
728;DHT22;347;48.780;9.158;2023-04-25T06:59:10;10.00;33.50
728;DHT22;347;48.780;9.158;2023-04-25T07:01:36;10.00;33.70
728;DHT22;347;48.780;9.158;2023-04-25T07:04:01;10.10;35.30
728;DHT22;347;48.780;9.158;2023-04-25T07:06:27;10.00;36.00
728;DHT22;347;48.780;9.158;2023-04-25T07:08:53;10.00;37.70
728;DHT22;347;48.780;9.158;2023-04-25T07:11:19;10.00;36.50
728;DHT22;347;48.780;9.158;2023-04-25T07:13:45;10.20;36.10
728;DHT22;347;48.780;9.158;2023-04-25T07:16:20;10.40;35.70
728;DHT22;347;48.780;9.158;2023-04-25T07:18:45;10.70;35.10
728;DHT22;347;48.780;9.158;2023-04-25T07:21:11;10.90;34.60
728;DHT22;347;48.780;9.158;2023-04-25T07:23:37;10.90;35.80
728;DHT22;347;48.780;9.158;2023-04-25T07:26:02;10.70;36.60
728;DHT22;347;48.780;9.158;2023-04-25T07:28:28;10.60;36.80
728;DHT22;347;48.780;9.158;2023-04-25T07:30:54;10.50;38.70
728;DHT22;347;48.780;9.158;2023-04-25T07:33:19;10.40;38.40
728;DHT22;347;48.780;9.158;2023-04-25T07:35:45;10.30;38.60
728;DHT22;347;48.780;9.158;2023-04-25T07:38:11;10.20;39.10
728;DHT22;347;48.780;9.158;2023-04-25T07:40:37;10.10;41.10
728;DHT22;347;48.780;9.158;2023-04-25T07:43:02;10.10;40.90
728;DHT22;347;48.780;9.158;2023-04-25T07:45:28;10.10;41.70
728;DHT22;347;48.780;9.158;2023-04-25T07:47:54;10.20;41.80
728;DHT22;347;48.780;9.158;2023-04-25T07:50:19;10.10;41.40
728;DHT22;347;48.780;9.158;2023-04-25T07:52:45;10.20;41.00
728;DHT22;347;48.780;9.158;2023-04-25T07:55:11;10.10;41.70
728;DHT22;347;48.780;9.158;2023-04-25T07:57:36;9.90;43.00
728;DHT22;347;48.780;9.158;2023-04-25T08:00:04;9.80;44.50
728;DHT22;347;48.780;9.158;2023-04-25T08:02:30;9.70;45.70
728;DHT22;347;48.780;9.158;2023-04-25T08:04:56;9.60;45.80
728;DHT22;347;48.780;9.158;2023-04-25T08:07:21;9.50;45.50
728;DHT22;347;48.780;9.158;2023-04-25T08:09:47;9.60;47.30
728;DHT22;347;48.780;9.158;2023-04-25T08:12:13;9.50;47.30
728;DHT22;347;48.780;9.158;2023-04-25T08:14:38;9.50;48.20
728;DHT22;347;48.780;9.158;2023-04-25T08:17:05;9.50;48.20
728;DHT22;347;48.780;9.158;2023-04-25T08:19:31;9.50;48.10
728;DHT22;347;48.780;9.158;2023-04-25T08:21:56;9.60;47.20
728;DHT22;347;48.780;9.158;2023-04-25T08:24:23;9.60;47.00
728;DHT22;347;48.780;9.158;2023-04-25T08:26:48;9.60;47.30
728;DHT22;347;48.780;9.158;2023-04-25T08:29:14;9.60;48.40
728;DHT22;347;48.780;9.158;2023-04-25T08:31:40;9.60;47.90
728;DHT22;347;48.780;9.158;2023-04-25T08:34:06;9.60;48.60
728;DHT22;347;48.780;9.158;2023-04-25T08:36:32;9.60;47.40
728;DHT22;347;48.780;9.158;2023-04-25T08:38:58;9.50;48.70
728;DHT22;347;48.780;9.158;2023-04-25T08:41:24;9.60;49.40
728;DHT22;347;48.780;9.158;2023-04-25T08:43:51;9.70;49.50
728;DHT22;347;48.780;9.158;2023-04-25T08:46:18;9.70;49.20
728;DHT22;347;48.780;9.158;2023-04-25T08:48:45;9.70;49.10
728;DHT22;347;48.780;9.158;2023-04-25T08:51:17;9.70;48.70
728;DHT22;347;48.780;9.158;2023-04-25T08:53:49;9.70;48.80
728;DHT22;347;48.780;9.158;2023-04-25T08:56:16;9.70;48.60
728;DHT22;347;48.780;9.158;2023-04-25T08:58:51;9.70;48.90
728;DHT22;347;48.780;9.158;2023-04-25T09:01:17;9.70;47.90
728;DHT22;347;48.780;9.158;2023-04-25T09:03:44;9.80;46.90
728;DHT22;347;48.780;9.158;2023-04-25T09:06:13;9.70;48.20
728;DHT22;347;48.780;9.158;2023-04-25T09:08:39;9.70;47.90
728;DHT22;347;48.780;9.158;2023-04-25T09:11:07;9.60;48.00
728;DHT22;347;48.780;9.158;2023-04-25T09:13:32;9.60;48.50
728;DHT22;347;48.780;9.158;2023-04-25T09:15:58;9.50;47.70
728;DHT22;347;48.780;9.158;2023-04-25T09:18:28;9.50;48.50
728;DHT22;347;48.780;9.158;2023-04-25T09:20:55;9.50;48.80
728;DHT22;347;48.780;9.158;2023-04-25T09:23:22;9.50;48.40
728;DHT22;347;48.780;9.158;2023-04-25T09:25:50;9.50;49.70
728;DHT22;347;48.780;9.158;2023-04-25T09:28:16;9.60;48.80
728;DHT22;347;48.780;9.158;2023-04-25T09:30:41;9.60;49.00
728;DHT22;347;48.780;9.158;2023-04-25T09:33:09;9.70;48.20
728;DHT22;347;48.780;9.158;2023-04-25T09:35:45;9.70;47.40
728;DHT22;347;48.780;9.158;2023-04-25T09:38:14;9.70;46.90
728;DHT22;347;48.780;9.158;2023-04-25T09:40:45;9.80;47.60
728;DHT22;347;48.780;9.158;2023-04-25T09:43:21;9.70;44.90
728;DHT22;347;48.780;9.158;2023-04-25T09:49:51;9.60;46.50
728;DHT22;347;48.780;9.158;2023-04-25T09:52:20;9.80;45.40
728;DHT22;347;48.780;9.158;2023-04-25T09:54:47;9.90;45.50
728;DHT22;347;48.780;9.158;2023-04-25T09:57:24;9.80;46.40
728;DHT22;347;48.780;9.158;2023-04-25T09:59:53;9.70;47.00
728;DHT22;347;48.780;9.158;2023-04-25T10:02:23;9.80;48.00
728;DHT22;347;48.780;9.158;2023-04-25T10:04:51;9.80;46.90
728;DHT22;347;48.780;9.158;2023-04-25T10:07:23;9.60;47.60
728;DHT22;347;48.780;9.158;2023-04-25T10:10:02;9.50;46.80
728;DHT22;347;48.780;9.158;2023-04-25T10:12:30;9.50;46.20
728;DHT22;347;48.780;9.158;2023-04-25T10:15:00;9.50;46.90
728;DHT22;347;48.780;9.158;2023-04-25T10:17:29;9.50;48.30
728;DHT22;347;48.780;9.158;2023-04-25T10:19:55;9.40;47.70
728;DHT22;347;48.780;9.158;2023-04-25T10:24:52;9.70;45.60
728;DHT22;347;48.780;9.158;2023-04-25T10:27:18;9.60;45.40
728;DHT22;347;48.780;9.158;2023-04-25T10:29:44;9.80;44.20
728;DHT22;347;48.780;9.158;2023-04-25T10:32:10;9.80;42.90
728;DHT22;347;48.780;9.158;2023-04-25T10:34:43;9.70;43.80
728;DHT22;347;48.780;9.158;2023-04-25T10:37:12;9.90;43.30
728;DHT22;347;48.780;9.158;2023-04-25T10:39:41;9.80;43.60
728;DHT22;347;48.780;9.158;2023-04-25T10:42:08;9.70;45.80
728;DHT22;347;48.780;9.158;2023-04-25T10:44:34;9.80;43.90
728;DHT22;347;48.780;9.158;2023-04-25T10:47:01;9.70;45.30
728;DHT22;347;48.780;9.158;2023-04-25T10:49:42;9.60;45.20
728;DHT22;347;48.780;9.158;2023-04-25T10:52:26;9.80;45.00
728;DHT22;347;48.780;9.158;2023-04-25T10:54:57;10.10;42.80
728;DHT22;347;48.780;9.158;2023-04-25T11:00:13;10.40;40.70
728;DHT22;347;48.780;9.158;2023-04-25T11:02:45;10.50;40.80
728;DHT22;347;48.780;9.158;2023-04-25T11:05:20;10.60;39.70
728;DHT22;347;48.780;9.158;2023-04-25T11:07:53;10.50;40.50
728;DHT22;347;48.780;9.158;2023-04-25T11:10:28;10.50;39.10
728;DHT22;347;48.780;9.158;2023-04-25T11:12:54;10.60;38.50
728;DHT22;347;48.780;9.158;2023-04-25T11:15:20;10.60;37.80
728;DHT22;347;48.780;9.158;2023-04-25T11:17:45;10.60;38.60
728;DHT22;347;48.780;9.158;2023-04-25T11:20:12;10.70;38.00
728;DHT22;347;48.780;9.158;2023-04-25T11:22:39;10.80;37.60
728;DHT22;347;48.780;9.158;2023-04-25T11:25:07;10.80;36.80
728;DHT22;347;48.780;9.158;2023-04-25T11:27:33;10.70;37.50
728;DHT22;347;48.780;9.158;2023-04-25T11:30:18;10.70;34.70
728;DHT22;347;48.780;9.158;2023-04-25T11:32:44;10.50;35.10
728;DHT22;347;48.780;9.158;2023-04-25T11:35:11;10.20;37.50
728;DHT22;347;48.780;9.158;2023-04-25T11:37:39;10.30;36.60
728;DHT22;347;48.780;9.158;2023-04-25T11:40:06;9.70;40.20
728;DHT22;347;48.780;9.158;2023-04-25T11:42:33;9.50;42.10
728;DHT22;347;48.780;9.158;2023-04-25T11:44:59;9.30;43.20
728;DHT22;347;48.780;9.158;2023-04-25T11:47:32;9.10;43.60
728;DHT22;347;48.780;9.158;2023-04-25T11:49:59;9.10;42.80
728;DHT22;347;48.780;9.158;2023-04-25T11:52:44;9.10;45.50
728;DHT22;347;48.780;9.158;2023-04-25T11:55:14;9.30;46.20
728;DHT22;347;48.780;9.158;2023-04-25T11:57:40;9.20;44.40
728;DHT22;347;48.780;9.158;2023-04-25T12:00:14;9.30;44.70
728;DHT22;347;48.780;9.158;2023-04-25T12:02:43;9.20;45.20
728;DHT22;347;48.780;9.158;2023-04-25T12:05:11;9.30;44.00
728;DHT22;347;48.780;9.158;2023-04-25T12:07:37;9.30;44.10
728;DHT22;347;48.780;9.158;2023-04-25T12:10:10;9.10;44.20
728;DHT22;347;48.780;9.158;2023-04-25T12:12:37;9.00;44.90
728;DHT22;347;48.780;9.158;2023-04-25T12:15:25;9.00;46.10
728;DHT22;347;48.780;9.158;2023-04-25T12:17:52;9.10;46.40
728;DHT22;347;48.780;9.158;2023-04-25T12:20:20;9.50;44.30
728;DHT22;347;48.780;9.158;2023-04-25T12:22:47;9.60;42.30
728;DHT22;347;48.780;9.158;2023-04-25T12:31:12;9.50;44.80
728;DHT22;347;48.780;9.158;2023-04-25T12:33:40;9.40;45.40
728;DHT22;347;48.780;9.158;2023-04-25T12:36:07;9.30;43.30
728;DHT22;347;48.780;9.158;2023-04-25T12:38:38;9.50;43.70
728;DHT22;347;48.780;9.158;2023-04-25T12:41:06;9.70;43.80
728;DHT22;347;48.780;9.158;2023-04-25T12:43:32;9.80;42.80
728;DHT22;347;48.780;9.158;2023-04-25T12:45:57;9.70;42.30
728;DHT22;347;48.780;9.158;2023-04-25T12:48:23;9.70;43.40
728;DHT22;347;48.780;9.158;2023-04-25T12:50:50;9.70;41.80
728;DHT22;347;48.780;9.158;2023-04-25T12:53:18;9.80;41.20
728;DHT22;347;48.780;9.158;2023-04-25T12:55:44;9.90;41.20
728;DHT22;347;48.780;9.158;2023-04-25T12:58:17;10.00;39.40
728;DHT22;347;48.780;9.158;2023-04-25T13:00:44;10.00;40.30
728;DHT22;347;48.780;9.158;2023-04-25T13:03:10;9.90;40.60
728;DHT22;347;48.780;9.158;2023-04-25T13:05:37;10.00;39.70
728;DHT22;347;48.780;9.158;2023-04-25T13:08:02;10.20;39.80
728;DHT22;347;48.780;9.158;2023-04-25T13:10:28;10.00;40.80
728;DHT22;347;48.780;9.158;2023-04-25T13:12:54;10.00;42.10
728;DHT22;347;48.780;9.158;2023-04-25T13:15:19;10.00;40.60
728;DHT22;347;48.780;9.158;2023-04-25T13:17:45;10.00;41.60
728;DHT22;347;48.780;9.158;2023-04-25T13:20:12;10.20;40.90
728;DHT22;347;48.780;9.158;2023-04-25T13:22:39;10.50;39.50
728;DHT22;347;48.780;9.158;2023-04-25T13:25:06;10.70;36.80
728;DHT22;347;48.780;9.158;2023-04-25T13:27:32;10.90;33.40
728;DHT22;347;48.780;9.158;2023-04-25T13:29:59;11.10;33.20
728;DHT22;347;48.780;9.158;2023-04-25T13:32:25;11.20;34.60
728;DHT22;347;48.780;9.158;2023-04-25T13:34:51;11.20;34.60
728;DHT22;347;48.780;9.158;2023-04-25T13:37:18;11.10;35.40
728;DHT22;347;48.780;9.158;2023-04-25T13:39:44;10.90;36.00
728;DHT22;347;48.780;9.158;2023-04-25T13:42:09;10.90;36.40
728;DHT22;347;48.780;9.158;2023-04-25T13:44:36;10.70;36.80
728;DHT22;347;48.780;9.158;2023-04-25T13:47:02;10.60;37.70
728;DHT22;347;48.780;9.158;2023-04-25T13:49:27;10.60;38.50
728;DHT22;347;48.780;9.158;2023-04-25T13:51:53;10.90;36.50
728;DHT22;347;48.780;9.158;2023-04-25T13:54:18;10.90;36.70
728;DHT22;347;48.780;9.158;2023-04-25T13:56:44;10.80;38.30
728;DHT22;347;48.780;9.158;2023-04-25T13:59:11;10.80;38.30
728;DHT22;347;48.780;9.158;2023-04-25T14:01:36;10.90;36.70
728;DHT22;347;48.780;9.158;2023-04-25T14:04:02;10.90;37.70
728;DHT22;347;48.780;9.158;2023-04-25T14:06:31;11.10;37.90
728;DHT22;347;48.780;9.158;2023-04-25T14:08:57;11.10;38.00
728;DHT22;347;48.780;9.158;2023-04-25T14:11:23;11.30;36.60
728;DHT22;347;48.780;9.158;2023-04-25T14:13:48;11.50;34.90
728;DHT22;347;48.780;9.158;2023-04-25T14:16:15;11.50;34.80
728;DHT22;347;48.780;9.158;2023-04-25T14:18:41;11.50;35.70
728;DHT22;347;48.780;9.158;2023-04-25T14:21:06;11.50;34.00
728;DHT22;347;48.780;9.158;2023-04-25T14:23:32;11.70;32.20
728;DHT22;347;48.780;9.158;2023-04-25T14:25:58;11.80;32.50
728;DHT22;347;48.780;9.158;2023-04-25T14:28:23;11.80;30.50
728;DHT22;347;48.780;9.158;2023-04-25T14:30:49;11.60;31.80
728;DHT22;347;48.780;9.158;2023-04-25T14:33:14;11.50;30.90
728;DHT22;347;48.780;9.158;2023-04-25T14:35:40;11.40;32.20
728;DHT22;347;48.780;9.158;2023-04-25T14:38:06;11.50;30.20
728;DHT22;347;48.780;9.158;2023-04-25T14:40:33;11.70;29.80
728;DHT22;347;48.780;9.158;2023-04-25T14:42:58;11.70;28.60
728;DHT22;347;48.780;9.158;2023-04-25T14:45:24;11.80;28.50
728;DHT22;347;48.780;9.158;2023-04-25T14:47:50;11.90;30.20
728;DHT22;347;48.780;9.158;2023-04-25T14:50:15;11.60;30.00
728;DHT22;347;48.780;9.158;2023-04-25T14:52:41;11.70;30.00
728;DHT22;347;48.780;9.158;2023-04-25T14:55:07;11.70;29.80
728;DHT22;347;48.780;9.158;2023-04-25T14:57:34;11.90;29.50
728;DHT22;347;48.780;9.158;2023-04-25T15:00:00;12.00;29.30
728;DHT22;347;48.780;9.158;2023-04-25T15:02:27;12.00;30.30
728;DHT22;347;48.780;9.158;2023-04-25T15:04:54;12.20;30.00
728;DHT22;347;48.780;9.158;2023-04-25T15:07:21;12.20;28.70
728;DHT22;347;48.780;9.158;2023-04-25T15:09:47;12.20;29.00
728;DHT22;347;48.780;9.158;2023-04-25T15:12:13;12.30;28.20
728;DHT22;347;48.780;9.158;2023-04-25T15:14:39;12.40;28.20
728;DHT22;347;48.780;9.158;2023-04-25T15:17:05;12.50;28.50
728;DHT22;347;48.780;9.158;2023-04-25T15:19:30;12.60;28.70
728;DHT22;347;48.780;9.158;2023-04-25T15:21:56;12.60;27.00
728;DHT22;347;48.780;9.158;2023-04-25T15:24:25;12.50;27.20
728;DHT22;347;48.780;9.158;2023-04-25T15:26:51;12.50;26.90
728;DHT22;347;48.780;9.158;2023-04-25T15:29:17;12.50;26.80
728;DHT22;347;48.780;9.158;2023-04-25T15:31:44;12.50;27.40
728;DHT22;347;48.780;9.158;2023-04-25T15:34:10;12.50;27.30
728;DHT22;347;48.780;9.158;2023-04-25T15:36:36;12.50;26.50
728;DHT22;347;48.780;9.158;2023-04-25T15:39:02;12.40;27.00
728;DHT22;347;48.780;9.158;2023-04-25T15:41:28;12.50;26.70
728;DHT22;347;48.780;9.158;2023-04-25T15:43:54;12.40;26.50
728;DHT22;347;48.780;9.158;2023-04-25T15:46:19;12.40;26.70
728;DHT22;347;48.780;9.158;2023-04-25T15:48:47;12.40;26.10
728;DHT22;347;48.780;9.158;2023-04-25T15:51:13;12.40;26.20
728;DHT22;347;48.780;9.158;2023-04-25T15:53:38;12.40;26.20
728;DHT22;347;48.780;9.158;2023-04-25T15:56:04;12.40;26.60
728;DHT22;347;48.780;9.158;2023-04-25T15:58:30;12.40;26.00
728;DHT22;347;48.780;9.158;2023-04-25T16:00:56;12.40;25.30
728;DHT22;347;48.780;9.158;2023-04-25T16:03:22;12.40;25.80
728;DHT22;347;48.780;9.158;2023-04-25T16:05:48;12.30;26.10
728;DHT22;347;48.780;9.158;2023-04-25T16:08:14;12.30;26.40
728;DHT22;347;48.780;9.158;2023-04-25T16:10:39;12.30;26.60
728;DHT22;347;48.780;9.158;2023-04-25T16:13:05;12.30;26.60
728;DHT22;347;48.780;9.158;2023-04-25T16:15:31;12.30;26.80
728;DHT22;347;48.780;9.158;2023-04-25T16:17:56;12.40;27.20
728;DHT22;347;48.780;9.158;2023-04-25T16:20:22;12.40;27.30
728;DHT22;347;48.780;9.158;2023-04-25T16:22:48;12.50;27.20
728;DHT22;347;48.780;9.158;2023-04-25T16:25:13;12.50;26.20
728;DHT22;347;48.780;9.158;2023-04-25T16:27:39;12.50;25.80
728;DHT22;347;48.780;9.158;2023-04-25T16:30:07;12.50;25.60
728;DHT22;347;48.780;9.158;2023-04-25T16:32:33;12.50;25.80
728;DHT22;347;48.780;9.158;2023-04-25T16:34:58;12.50;25.80
728;DHT22;347;48.780;9.158;2023-04-25T16:37:24;12.50;25.30
728;DHT22;347;48.780;9.158;2023-04-25T16:39:50;12.40;25.60
728;DHT22;347;48.780;9.158;2023-04-25T16:42:16;12.30;26.40
728;DHT22;347;48.780;9.158;2023-04-25T16:44:41;12.40;26.50
728;DHT22;347;48.780;9.158;2023-04-25T16:47:07;12.40;25.80
728;DHT22;347;48.780;9.158;2023-04-25T16:49:32;12.50;25.40